Terminal Aerodrome Forecast
Issued by NWS

Home | Current Version | Previous Version | Graphics & Text | Print | Product List | Glossary On
Versions: 1 2 3 4 5 6 7 8 9 10 11 12
000
FTUS43 KMPX 291720
TAFAXN
TAF
KAXN 291720Z 2918/3018 31009KT P6SM FEW050
     FM291900 31011G17KT P6SM VCTS SCT050CB BKN120
     FM292200 32009KT P6SM SCT120
     FM301200 04006KT P6SM SKC=

USA.gov is the U.S. government's official web portal to all federal, state and local government web resources and services.